sensor_id;sensor_type;location;lat;lon;timestamp;pressure;altitude;pressure_sealevel;temperature;humidity
65211;BME280;51794;52.758;55.792;2022-09-12T00:01:08;98308.69;;;12.35;57.95
65211;BME280;51794;52.758;55.792;2022-09-12T00:03:34;98303.69;;;12.18;58.37
65211;BME280;51794;52.758;55.792;2022-09-12T00:06:00;98303.66;;;12.26;57.96
65211;BME280;51794;52.758;55.792;2022-09-12T00:08:31;98303.53;;;12.19;58.95
65211;BME280;51794;52.758;55.792;2022-09-12T00:10:57;98301.88;;;12.18;58.65
65211;BME280;51794;52.758;55.792;2022-09-12T00:13:22;98306.72;;;12.15;58.24
65211;BME280;51794;52.758;55.792;2022-09-12T00:15:48;98306.44;;;12.09;58.98
65211;BME280;51794;52.758;55.792;2022-09-12T00:18:15;98299.81;;;12.05;58.47
65211;BME280;51794;52.758;55.792;2022-09-12T00:20:41;98302.72;;;11.96;58.77
65211;BME280;51794;52.758;55.792;2022-09-12T00:23:07;98308.41;;;12.16;58.09
65211;BME280;51794;52.758;55.792;2022-09-12T00:25:33;98296.19;;;12.21;57.29
65211;BME280;51794;52.758;55.792;2022-09-12T00:27:59;98299.41;;;12.17;57.59
65211;BME280;51794;52.758;55.792;2022-09-12T00:30:24;98308.41;;;12.16;58.19
65211;BME280;51794;52.758;55.792;2022-09-12T00:32:50;98300.19;;;12.40;57.62
65211;BME280;51794;52.758;55.792;2022-09-12T00:35:19;98296.78;;;12.31;57.04
65211;BME280;51794;52.758;55.792;2022-09-12T00:37:44;98298.22;;;11.96;57.20
65211;BME280;51794;52.758;55.792;2022-09-12T00:40:11;98295.25;;;11.91;57.32
65211;BME280;51794;52.758;55.792;2022-09-12T00:42:36;98305.72;;;11.93;57.01
65211;BME280;51794;52.758;55.792;2022-09-12T00:45:02;98295.50;;;12.04;56.89
65211;BME280;51794;52.758;55.792;2022-09-12T00:47:29;98305.59;;;11.55;57.48
65211;BME280;51794;52.758;55.792;2022-09-12T00:50:07;98299.41;;;11.94;56.07
65211;BME280;51794;52.758;55.792;2022-09-12T00:55:36;98301.69;;;11.42;57.95
65211;BME280;51794;52.758;55.792;2022-09-12T00:58:23;98302.44;;;11.59;57.35
65211;BME280;51794;52.758;55.792;2022-09-12T01:00:50;98310.09;;;11.54;57.22
65211;BME280;51794;52.758;55.792;2022-09-12T01:03:17;98303.28;;;11.52;57.47
65211;BME280;51794;52.758;55.792;2022-09-12T01:05:52;98302.78;;;11.56;57.12
65211;BME280;51794;52.758;55.792;2022-09-12T01:08:22;98298.75;;;11.60;57.39
65211;BME280;51794;52.758;55.792;2022-09-12T01:10:49;98302.19;;;11.69;57.10
65211;BME280;51794;52.758;55.792;2022-09-12T01:13:15;98308.69;;;11.66;56.98
65211;BME280;51794;52.758;55.792;2022-09-12T01:15:41;98296.28;;;11.82;56.59
65211;BME280;51794;52.758;55.792;2022-09-12T01:20:42;98297.41;;;11.96;56.28
65211;BME280;51794;52.758;55.792;2022-09-12T01:23:15;98302.78;;;11.56;57.07
65211;BME280;51794;52.758;55.792;2022-09-12T01:25:51;98302.19;;;11.69;56.86
65211;BME280;51794;52.758;55.792;2022-09-12T01:33:41;98311.09;;;11.76;57.00
65211;BME280;51794;52.758;55.792;2022-09-12T01:36:19;98316.53;;;11.60;57.09
65211;BME280;51794;52.758;55.792;2022-09-12T01:39:00;98315.66;;;11.67;56.97
65211;BME280;51794;52.758;55.792;2022-09-12T01:46:46;98313.09;;;11.82;56.67
65211;BME280;51794;52.758;55.792;2022-09-12T01:49:35;98314.56;;;11.54;57.30
65211;BME280;51794;52.758;55.792;2022-09-12T01:52:17;98316.72;;;11.58;56.81
65211;BME280;51794;52.758;55.792;2022-09-12T01:54:46;98323.47;;;11.61;56.86
65211;BME280;51794;52.758;55.792;2022-09-12T01:57:16;98324.22;;;11.78;56.61
65211;BME280;51794;52.758;55.792;2022-09-12T01:59:45;98323.31;;;11.62;56.71
65211;BME280;51794;52.758;55.792;2022-09-12T02:02:20;98326.53;;;11.81;56.46
65211;BME280;51794;52.758;55.792;2022-09-12T02:04:50;98323.44;;;11.69;56.81
65211;BME280;51794;52.758;55.792;2022-09-12T02:07:32;98316.44;;;11.06;76.83
65211;BME280;51794;52.758;55.792;2022-09-12T02:10:11;98285.31;;;10.36;85.03
65211;BME280;51794;52.758;55.792;2022-09-12T02:12:41;98321.38;;;11.17;66.29
65211;BME280;51794;52.758;55.792;2022-09-12T02:15:09;98327.53;;;11.80;61.60
65211;BME280;51794;52.758;55.792;2022-09-12T02:17:38;98326.88;;;11.78;59.79
65211;BME280;51794;52.758;55.792;2022-09-12T02:20:27;98331.75;;;11.66;60.88
65211;BME280;51794;52.758;55.792;2022-09-12T02:22:52;98322.03;;;11.81;58.52
65211;BME280;51794;52.758;55.792;2022-09-12T02:25:20;98329.41;;;11.40;59.86
65211;BME280;51794;52.758;55.792;2022-09-12T02:27:53;98334.56;;;11.33;59.89
65211;BME280;51794;52.758;55.792;2022-09-12T02:30:21;98343.03;;;11.99;59.43
65211;BME280;51794;52.758;55.792;2022-09-12T02:33:00;98340.97;;;11.86;58.84
65211;BME280;51794;52.758;55.792;2022-09-12T02:35:35;98341.66;;;12.03;58.83
65211;BME280;51794;52.758;55.792;2022-09-12T02:38:08;98336.13;;;11.90;59.41
65211;BME280;51794;52.758;55.792;2022-09-12T02:40:35;98338.19;;;12.03;57.98
65211;BME280;51794;52.758;55.792;2022-09-12T02:43:02;98337.72;;;12.22;56.46
65211;BME280;51794;52.758;55.792;2022-09-12T02:45:29;98336.97;;;12.37;57.94
65211;BME280;51794;52.758;55.792;2022-09-12T02:48:18;98347.13;;;12.86;56.57
65211;BME280;51794;52.758;55.792;2022-09-12T02:51:25;98344.47;;;12.86;55.36
65211;BME280;51794;52.758;55.792;2022-09-12T02:54:01;98346.78;;;13.48;56.04
65211;BME280;51794;52.758;55.792;2022-09-12T02:56:29;98348.38;;;13.79;54.93
65211;BME280;51794;52.758;55.792;2022-09-12T02:58:57;98349.06;;;13.21;54.31
65211;BME280;51794;52.758;55.792;2022-09-12T03:06:42;98348.38;;;13.27;53.68
65211;BME280;51794;52.758;55.792;2022-09-12T03:09:18;98349.06;;;13.07;54.14
65211;BME280;51794;52.758;55.792;2022-09-12T03:14:25;98352.38;;;13.53;52.41
65211;BME280;51794;52.758;55.792;2022-09-12T03:16:57;98351.00;;;13.57;52.69
65211;BME280;51794;52.758;55.792;2022-09-12T03:22:19;98349.88;;;13.66;52.34
65211;BME280;51794;52.758;55.792;2022-09-12T03:25:09;98356.53;;;13.77;51.63
65211;BME280;51794;52.758;55.792;2022-09-12T03:27:42;98349.25;;;13.49;52.48
65211;BME280;51794;52.758;55.792;2022-09-12T03:30:10;98349.69;;;13.68;52.01
65211;BME280;51794;52.758;55.792;2022-09-12T03:35:09;98353.84;;;13.92;50.98
65211;BME280;51794;52.758;55.792;2022-09-12T03:37:35;98351.91;;;13.64;51.68
65211;BME280;51794;52.758;55.792;2022-09-12T03:40:01;98356.13;;;14.16;50.56
65211;BME280;51794;52.758;55.792;2022-09-12T03:42:28;98353.66;;;14.36;49.93
65211;BME280;51794;52.758;55.792;2022-09-12T03:44:54;98365.22;;;14.22;50.23
65211;BME280;51794;52.758;55.792;2022-09-12T03:47:20;98360.78;;;14.51;49.45
65211;BME280;51794;52.758;55.792;2022-09-12T03:49:46;98370.63;;;14.72;49.37
65211;BME280;51794;52.758;55.792;2022-09-12T03:52:11;98360.78;;;15.07;48.79
65211;BME280;51794;52.758;55.792;2022-09-12T03:54:37;98371.66;;;15.40;48.07
65211;BME280;51794;52.758;55.792;2022-09-12T03:57:04;98378.75;;;15.20;48.32
65211;BME280;51794;52.758;55.792;2022-09-12T03:59:30;98378.78;;;15.26;48.31
65211;BME280;51794;52.758;55.792;2022-09-12T04:01:56;98386.81;;;14.70;49.66
65211;BME280;51794;52.758;55.792;2022-09-12T04:04:21;98382.34;;;15.75;47.60
65211;BME280;51794;52.758;55.792;2022-09-12T04:06:47;98378.97;;;15.66;47.14
65211;BME280;51794;52.758;55.792;2022-09-12T04:09:13;98382.97;;;15.42;47.96
65211;BME280;51794;52.758;55.792;2022-09-12T04:11:39;98380.06;;;15.72;47.25
65211;BME280;51794;52.758;55.792;2022-09-12T04:14:05;98384.84;;;15.76;47.27
65211;BME280;51794;52.758;55.792;2022-09-12T04:16:31;98384.38;;;16.28;46.21
65211;BME280;51794;52.758;55.792;2022-09-12T04:18:57;98381.47;;;16.22;46.18
65211;BME280;51794;52.758;55.792;2022-09-12T04:21:23;98391.66;;;15.92;46.67
65211;BME280;51794;52.758;55.792;2022-09-12T04:23:49;98386.97;;;15.18;48.16
65211;BME280;51794;52.758;55.792;2022-09-12T04:26:15;98392.13;;;15.61;47.51
65211;BME280;51794;52.758;55.792;2022-09-12T04:28:42;98391.34;;;16.29;46.32
65211;BME280;51794;52.758;55.792;2022-09-12T04:31:10;98394.38;;;16.06;46.80
65211;BME280;51794;52.758;55.792;2022-09-12T04:33:36;98390.75;;;16.46;45.81
65211;BME280;51794;52.758;55.792;2022-09-12T04:36:06;98401.28;;;15.80;46.97
65211;BME280;51794;52.758;55.792;2022-09-12T04:38:32;98397.13;;;16.32;46.29
65211;BME280;51794;52.758;55.792;2022-09-12T04:40:58;98401.72;;;15.84;47.19
65211;BME280;51794;52.758;55.792;2022-09-12T04:43:23;98396.25;;;16.12;47.02
65211;BME280;51794;52.758;55.792;2022-09-12T04:45:49;98398.25;;;15.96;46.97
65211;BME280;51794;52.758;55.792;2022-09-12T04:48:16;98394.84;;;16.36;46.24
65211;BME280;51794;52.758;55.792;2022-09-12T04:50:42;98398.78;;;16.60;45.93
65211;BME280;51794;52.758;55.792;2022-09-12T04:53:07;98396.06;;;16.20;46.85
65211;BME280;51794;52.758;55.792;2022-09-12T04:55:33;98399.59;;;16.47;46.58
65211;BME280;51794;52.758;55.792;2022-09-12T04:58:00;98407.28;;;16.90;45.64
65211;BME280;51794;52.758;55.792;2022-09-12T05:00:26;98405.81;;;16.61;46.39
65211;BME280;51794;52.758;55.792;2022-09-12T05:02:52;98400.66;;;16.46;46.64
65211;BME280;51794;52.758;55.792;2022-09-12T05:05:17;98393.00;;;17.29;45.05
65211;BME280;51794;52.758;55.792;2022-09-12T05:07:43;98403.13;;;17.21;44.68
65211;BME280;51794;52.758;55.792;2022-09-12T05:10:09;98402.72;;;17.17;44.81
65211;BME280;51794;52.758;55.792;2022-09-12T05:12:35;98404.72;;;17.48;45.02
65211;BME280;51794;52.758;55.792;2022-09-12T05:15:01;98410.56;;;17.12;45.59
65211;BME280;51794;52.758;55.792;2022-09-12T05:17:29;98409.25;;;17.41;45.18
65211;BME280;51794;52.758;55.792;2022-09-12T05:19:55;98410.13;;;17.08;45.53
65211;BME280;51794;52.758;55.792;2022-09-12T05:22:21;98407.81;;;18.10;43.95
65211;BME280;51794;52.758;55.792;2022-09-12T05:24:47;98410.84;;;17.62;44.51
65211;BME280;51794;52.758;55.792;2022-09-12T05:27:13;98403.28;;;17.46;44.83
65211;BME280;51794;52.758;55.792;2022-09-12T05:29:39;98406.03;;;18.29;43.80
65211;BME280;51794;52.758;55.792;2022-09-12T05:32:04;98405.25;;;18.85;42.40
65211;BME280;51794;52.758;55.792;2022-09-12T05:34:30;98403.22;;;20.04;40.20
65211;BME280;51794;52.758;55.792;2022-09-12T05:36:56;98409.72;;;19.41;41.72
65211;BME280;51794;52.758;55.792;2022-09-12T05:39:22;98414.81;;;19.86;40.86
65211;BME280;51794;52.758;55.792;2022-09-12T05:41:49;98413.91;;;19.37;41.97
65211;BME280;51794;52.758;55.792;2022-09-12T05:44:15;98412.91;;;20.05;40.93
65211;BME280;51794;52.758;55.792;2022-09-12T05:46:42;98414.41;;;19.46;42.21
65211;BME280;51794;52.758;55.792;2022-09-12T05:49:09;98409.91;;;20.74;40.32
65211;BME280;51794;52.758;55.792;2022-09-12T05:51:36;98409.56;;;20.82;40.04
65211;BME280;51794;52.758;55.792;2022-09-12T05:54:03;98403.72;;;21.32;39.19
65211;BME280;51794;52.758;55.792;2022-09-12T05:56:30;98400.19;;;21.08;39.74
65211;BME280;51794;52.758;55.792;2022-09-12T05:58:57;98398.19;;;21.62;38.56
65211;BME280;51794;52.758;55.792;2022-09-12T06:01:23;98406.31;;;19.71;42.24
65211;BME280;51794;52.758;55.792;2022-09-12T06:03:51;98396.56;;;21.14;40.15
65211;BME280;51794;52.758;55.792;2022-09-12T06:06:18;98399.72;;;21.35;39.47
65211;BME280;51794;52.758;55.792;2022-09-12T06:08:45;98401.94;;;21.61;38.97
65211;BME280;51794;52.758;55.792;2022-09-12T06:11:12;98400.91;;;21.15;39.51
65211;BME280;51794;52.758;55.792;2022-09-12T06:13:39;98400.16;;;20.31;41.32
65211;BME280;51794;52.758;55.792;2022-09-12T06:16:06;98409.03;;;20.01;42.19
65211;BME280;51794;52.758;55.792;2022-09-12T06:18:36;98408.06;;;20.98;40.41
65211;BME280;51794;52.758;55.792;2022-09-12T06:21:06;98403.34;;;21.76;38.93
65211;BME280;51794;52.758;55.792;2022-09-12T06:23:32;98411.69;;;19.90;40.80
65211;BME280;51794;52.758;55.792;2022-09-12T06:25:58;98401.94;;;20.67;40.14
65211;BME280;51794;52.758;55.792;2022-09-12T06:28:25;98404.47;;;20.32;40.88
65211;BME280;51794;52.758;55.792;2022-09-12T06:30:51;98415.53;;;20.84;39.34
65211;BME280;51794;52.758;55.792;2022-09-12T06:33:16;98402.00;;;21.90;37.68
65211;BME280;51794;52.758;55.792;2022-09-12T06:35:42;98405.84;;;21.18;38.71
65211;BME280;51794;52.758;55.792;2022-09-12T06:38:08;98413.38;;;20.02;40.97
65211;BME280;51794;52.758;55.792;2022-09-12T06:40:34;98412.69;;;20.37;41.25
65211;BME280;51794;52.758;55.792;2022-09-12T06:43:05;98402.66;;;21.45;38.57
65211;BME280;51794;52.758;55.792;2022-09-12T06:45:31;98404.94;;;20.29;40.30
65211;BME280;51794;52.758;55.792;2022-09-12T06:47:57;98395.44;;;19.96;41.44
65211;BME280;51794;52.758;55.792;2022-09-12T06:50:22;98405.22;;;20.81;39.78
65211;BME280;51794;52.758;55.792;2022-09-12T06:52:49;98406.59;;;18.06;44.66
65211;BME280;51794;52.758;55.792;2022-09-12T06:55:15;98406.38;;;19.83;41.72
65211;BME280;51794;52.758;55.792;2022-09-12T06:57:41;98397.38;;;20.38;40.04
65211;BME280;51794;52.758;55.792;2022-09-12T07:00:08;98394.59;;;19.66;40.89
65211;BME280;51794;52.758;55.792;2022-09-12T07:02:34;98407.38;;;19.45;41.09
65211;BME280;51794;52.758;55.792;2022-09-12T07:05:00;98390.75;;;20.22;39.86
65211;BME280;51794;52.758;55.792;2022-09-12T07:07:26;98400.50;;;19.49;40.80
65211;BME280;51794;52.758;55.792;2022-09-12T07:09:51;98403.84;;;21.37;37.00
65211;BME280;51794;52.758;55.792;2022-09-12T07:12:18;98395.59;;;20.73;37.54
65211;BME280;51794;52.758;55.792;2022-09-12T07:14:44;98394.06;;;20.66;37.75
65211;BME280;51794;52.758;55.792;2022-09-12T07:17:09;98393.44;;;19.73;39.30
65211;BME280;51794;52.758;55.792;2022-09-12T07:19:36;98397.34;;;20.68;38.29
65211;BME280;51794;52.758;55.792;2022-09-12T07:22:02;98396.91;;;20.94;37.92
65211;BME280;51794;52.758;55.792;2022-09-12T07:24:28;98399.06;;;18.85;40.92
65211;BME280;51794;52.758;55.792;2022-09-12T07:26:54;98398.31;;;19.83;39.57
65211;BME280;51794;52.758;55.792;2022-09-12T07:29:27;98388.06;;;20.64;38.24
65211;BME280;51794;52.758;55.792;2022-09-12T07:31:57;98400.03;;;20.56;38.68
65211;BME280;51794;52.758;55.792;2022-09-12T07:34:24;98388.56;;;19.82;40.25
65211;BME280;51794;52.758;55.792;2022-09-12T07:36:50;98390.72;;;20.82;36.81
65211;BME280;51794;52.758;55.792;2022-09-12T07:39:15;98393.03;;;21.02;37.21
65211;BME280;51794;52.758;55.792;2022-09-12T07:41:41;98395.44;;;19.59;39.98
65211;BME280;51794;52.758;55.792;2022-09-12T07:44:07;98391.09;;;19.58;38.95
65211;BME280;51794;52.758;55.792;2022-09-12T07:46:33;98391.63;;;21.35;36.26
65211;BME280;51794;52.758;55.792;2022-09-12T07:48:59;98395.59;;;20.31;38.93
65211;BME280;51794;52.758;55.792;2022-09-12T07:51:29;98383.50;;;20.52;37.59
65211;BME280;51794;52.758;55.792;2022-09-12T07:53:55;98389.34;;;19.71;38.60
65211;BME280;51794;52.758;55.792;2022-09-12T07:56:21;98392.22;;;19.87;38.33
65211;BME280;51794;52.758;55.792;2022-09-12T07:58:48;98391.75;;;21.16;36.36
65211;BME280;51794;52.758;55.792;2022-09-12T08:01:18;98384.19;;;22.63;34.13
65211;BME280;51794;52.758;55.792;2022-09-12T08:03:45;98392.06;;;22.48;34.02
65211;BME280;51794;52.758;55.792;2022-09-12T08:06:17;98397.38;;;20.80;36.77
65211;BME280;51794;52.758;55.792;2022-09-12T08:08:51;98392.75;;;20.57;37.19
65211;BME280;51794;52.758;55.792;2022-09-12T08:11:19;98384.22;;;22.34;34.03
65211;BME280;51794;52.758;55.792;2022-09-12T08:14:15;98389.38;;;22.81;33.10
65211;BME280;51794;52.758;55.792;2022-09-12T08:17:02;98385.16;;;22.40;34.45
65211;BME280;51794;52.758;55.792;2022-09-12T08:19:28;98392.78;;;23.66;32.34
65211;BME280;51794;52.758;55.792;2022-09-12T08:21:54;98392.75;;;22.26;34.45
65211;BME280;51794;52.758;55.792;2022-09-12T08:24:20;98390.13;;;22.31;33.99
65211;BME280;51794;52.758;55.792;2022-09-12T08:26:45;98386.22;;;22.56;33.72
65211;BME280;51794;52.758;55.792;2022-09-12T08:29:11;98383.31;;;23.08;32.87
65211;BME280;51794;52.758;55.792;2022-09-12T08:31:37;98386.59;;;22.59;33.91
65211;BME280;51794;52.758;55.792;2022-09-12T08:34:11;98388.94;;;22.56;33.76
65211;BME280;51794;52.758;55.792;2022-09-12T08:36:37;98385.31;;;21.06;36.27
65211;BME280;51794;52.758;55.792;2022-09-12T08:39:04;98384.50;;;23.34;32.82
65211;BME280;51794;52.758;55.792;2022-09-12T08:41:40;98383.81;;;23.05;33.41
65211;BME280;51794;52.758;55.792;2022-09-12T08:51:52;98378.84;;;20.71;37.51
65211;BME280;51794;52.758;55.792;2022-09-12T08:54:24;98377.34;;;20.45;38.00
65211;BME280;51794;52.758;55.792;2022-09-12T08:56:52;98377.97;;;20.17;38.56
65211;BME280;51794;52.758;55.792;2022-09-12T08:59:22;98380.25;;;20.02;38.75
65211;BME280;51794;52.758;55.792;2022-09-12T09:10:16;98368.03;;;22.06;34.19
65211;BME280;51794;52.758;55.792;2022-09-12T09:17:58;98364.00;;;22.99;32.55
65211;BME280;51794;52.758;55.792;2022-09-12T09:20:39;98359.38;;;20.58;38.18
65211;BME280;51794;52.758;55.792;2022-09-12T09:23:10;98376.28;;;20.76;37.83
65211;BME280;51794;52.758;55.792;2022-09-12T09:25:47;98379.44;;;18.84;41.40
65211;BME280;51794;52.758;55.792;2022-09-12T09:28:17;98381.06;;;18.60;41.67
65211;BME280;51794;52.758;55.792;2022-09-12T09:30:48;98381.97;;;18.16;43.35
65211;BME280;51794;52.758;55.792;2022-09-12T09:33:19;98387.22;;;17.46;44.60
65211;BME280;51794;52.758;55.792;2022-09-12T09:35:47;98389.13;;;18.60;42.76
65211;BME280;51794;52.758;55.792;2022-09-12T09:38:24;98388.72;;;19.50;40.92
65211;BME280;51794;52.758;55.792;2022-09-12T09:43:23;98390.63;;;19.68;40.02
65211;BME280;51794;52.758;55.792;2022-09-12T09:45:54;98387.09;;;20.46;38.91
65211;BME280;51794;52.758;55.792;2022-09-12T09:48:31;98389.38;;;18.84;42.40
65211;BME280;51794;52.758;55.792;2022-09-12T09:50:58;98386.03;;;21.13;37.91
65211;BME280;51794;52.758;55.792;2022-09-12T09:55:50;98380.25;;;21.56;37.16
65211;BME280;51794;52.758;55.792;2022-09-12T10:01:15;98389.88;;;21.64;36.27
65211;BME280;51794;52.758;55.792;2022-09-12T10:03:51;98384.06;;;21.84;36.30
65211;BME280;51794;52.758;55.792;2022-09-12T10:08:45;98381.47;;;21.49;36.20
65211;BME280;51794;52.758;55.792;2022-09-12T10:11:18;98386.75;;;20.54;37.78
65211;BME280;51794;52.758;55.792;2022-09-12T10:13:57;98391.00;;;19.72;39.75
65211;BME280;51794;52.758;55.792;2022-09-12T10:18:52;98381.41;;;22.58;34.42
65211;BME280;51794;52.758;55.792;2022-09-12T10:21:24;98388.13;;;21.11;36.01
65211;BME280;51794;52.758;55.792;2022-09-12T10:23:58;98369.47;;;21.56;35.13
65211;BME280;51794;52.758;55.792;2022-09-12T10:26:24;98380.63;;;20.47;36.50
65211;BME280;51794;52.758;55.792;2022-09-12T10:28:52;98375.00;;;22.30;34.30
65211;BME280;51794;52.758;55.792;2022-09-12T10:31:41;98374.63;;;21.58;35.25
65211;BME280;51794;52.758;55.792;2022-09-12T10:34:09;98377.00;;;21.95;35.24
65211;BME280;51794;52.758;55.792;2022-09-12T10:36:43;98379.91;;;20.70;37.38
65211;BME280;51794;52.758;55.792;2022-09-12T10:39:11;98372.41;;;20.84;36.93
65211;BME280;51794;52.758;55.792;2022-09-12T10:41:41;98379.59;;;20.18;38.34
65211;BME280;51794;52.758;55.792;2022-09-12T10:44:11;98382.47;;;20.35;37.82
65211;BME280;51794;52.758;55.792;2022-09-12T10:46:39;98374.28;;;21.31;36.10
65211;BME280;51794;52.758;55.792;2022-09-12T10:49:12;98381.03;;;20.21;37.31
65211;BME280;51794;52.758;55.792;2022-09-12T10:51:38;98377.19;;;20.59;37.32
65211;BME280;51794;52.758;55.792;2022-09-12T10:54:04;98373.25;;;20.13;37.86
65211;BME280;51794;52.758;55.792;2022-09-12T10:56:33;98379.69;;;19.26;39.13
65211;BME280;51794;52.758;55.792;2022-09-12T11:01:48;98378.44;;;19.66;38.25
65211;BME280;51794;52.758;55.792;2022-09-12T11:12:25;98376.53;;;20.45;37.23
65211;BME280;51794;52.758;55.792;2022-09-12T11:15:21;98365.00;;;21.62;35.03
65211;BME280;51794;52.758;55.792;2022-09-12T11:20:50;98371.00;;;22.50;32.46
65211;BME280;51794;52.758;55.792;2022-09-12T11:25:58;98368.97;;;22.91;32.25
65211;BME280;51794;52.758;55.792;2022-09-12T11:28:29;98367.53;;;22.37;33.50
65211;BME280;51794;52.758;55.792;2022-09-12T11:31:12;98373.38;;;22.29;33.80
65211;BME280;51794;52.758;55.792;2022-09-12T11:33:43;98372.34;;;22.07;34.18
65211;BME280;51794;52.758;55.792;2022-09-12T11:37:05;98370.88;;;21.23;34.28
65211;BME280;51794;52.758;55.792;2022-09-12T11:39:00;98367.59;;;20.32;35.55
65211;BME280;51794;52.758;55.792;2022-09-12T11:41:35;98365.63;;;20.28;36.20
65211;BME280;51794;52.758;55.792;2022-09-12T11:44:07;98366.91;;;21.38;34.83
65211;BME280;51794;52.758;55.792;2022-09-12T11:46:37;98361.38;;;21.56;34.23
65211;BME280;51794;52.758;55.792;2022-09-12T11:54:17;98358.81;;;21.26;34.58
65211;BME280;51794;52.758;55.792;2022-09-12T11:56:46;98366.78;;;20.74;35.59
65211;BME280;51794;52.758;55.792;2022-09-12T12:01:45;98355.09;;;21.15;34.50
65211;BME280;51794;52.758;55.792;2022-09-12T12:04:16;98356.13;;;21.02;35.01
65211;BME280;51794;52.758;55.792;2022-09-12T12:06:47;98366.94;;;20.37;36.19
65211;BME280;51794;52.758;55.792;2022-09-12T12:09:13;98363.97;;;18.23;39.84
65211;BME280;51794;52.758;55.792;2022-09-12T12:11:58;98362.84;;;19.12;38.68
65211;BME280;51794;52.758;55.792;2022-09-12T12:14:40;98368.13;;;19.01;38.59
65211;BME280;51794;52.758;55.792;2022-09-12T12:17:21;98364.41;;;20.24;35.99
65211;BME280;51794;52.758;55.792;2022-09-12T12:19:55;98361.84;;;19.32;37.78
65211;BME280;51794;52.758;55.792;2022-09-12T12:22:22;98361.84;;;19.50;37.57
65211;BME280;51794;52.758;55.792;2022-09-12T12:27:24;98355.94;;;20.50;35.88
65211;BME280;51794;52.758;55.792;2022-09-12T12:32:59;98361.56;;;19.77;37.40
65211;BME280;51794;52.758;55.792;2022-09-12T12:38:25;98364.16;;;18.85;39.59
65211;BME280;51794;52.758;55.792;2022-09-12T12:40:50;98360.63;;;19.46;38.23
65211;BME280;51794;52.758;55.792;2022-09-12T12:43:31;98365.09;;;19.15;38.50
65211;BME280;51794;52.758;55.792;2022-09-12T12:46:01;98366.53;;;18.75;39.38
65211;BME280;51794;52.758;55.792;2022-09-12T12:48:28;98361.69;;;19.45;38.79
65211;BME280;51794;52.758;55.792;2022-09-12T12:51:13;98363.34;;;19.83;37.85
65211;BME280;51794;52.758;55.792;2022-09-12T12:53:40;98358.47;;;19.36;38.76
65211;BME280;51794;52.758;55.792;2022-09-12T12:56:19;98356.09;;;19.65;38.48
65211;BME280;51794;52.758;55.792;2022-09-12T12:58:49;98355.41;;;19.70;38.04
65211;BME280;51794;52.758;55.792;2022-09-12T13:01:22;98360.50;;;19.41;38.59
65211;BME280;51794;52.758;55.792;2022-09-12T13:06:59;98358.72;;;19.72;37.51
65211;BME280;51794;52.758;55.792;2022-09-12T13:09:06;98350.94;;;19.27;38.49
65211;BME280;51794;52.758;55.792;2022-09-12T13:11:34;98346.59;;;19.81;37.53
65211;BME280;51794;52.758;55.792;2022-09-12T13:14:05;98350.31;;;19.43;38.13
65211;BME280;51794;52.758;55.792;2022-09-12T13:16:33;98351.50;;;19.10;38.07
65211;BME280;51794;52.758;55.792;2022-09-12T13:19:03;98350.75;;;19.95;37.20
65211;BME280;51794;52.758;55.792;2022-09-12T13:21:30;98348.31;;;20.05;37.66
65211;BME280;51794;52.758;55.792;2022-09-12T13:24:03;98349.06;;;19.46;38.00
65211;BME280;51794;52.758;55.792;2022-09-12T13:26:33;98358.34;;;19.68;37.96
65211;BME280;51794;52.758;55.792;2022-09-12T13:29:15;98360.25;;;19.06;39.06
65211;BME280;51794;52.758;55.792;2022-09-12T13:31:41;98353.31;;;18.73;39.64
65211;BME280;51794;52.758;55.792;2022-09-12T13:34:08;98355.31;;;19.21;39.22
65211;BME280;51794;52.758;55.792;2022-09-12T13:36:44;98356.44;;;18.38;40.77
65211;BME280;51794;52.758;55.792;2022-09-12T13:39:24;98353.47;;;18.21;40.93
65211;BME280;51794;52.758;55.792;2022-09-12T13:44:22;98355.81;;;18.11;41.85
65211;BME280;51794;52.758;55.792;2022-09-12T13:46:49;98354.94;;;18.74;40.54
65211;BME280;51794;52.758;55.792;2022-09-12T13:49:21;98360.31;;;18.17;42.11
65211;BME280;51794;52.758;55.792;2022-09-12T13:51:59;98361.75;;;18.13;42.19
65211;BME280;51794;52.758;55.792;2022-09-12T13:54:25;98354.03;;;18.30;41.22
65211;BME280;51794;52.758;55.792;2022-09-12T13:56:52;98358.53;;;18.36;42.02
65211;BME280;51794;52.758;55.792;2022-09-12T13:59:17;98362.09;;;18.55;41.18
65211;BME280;51794;52.758;55.792;2022-09-12T14:01:44;98356.72;;;17.92;42.25
65211;BME280;51794;52.758;55.792;2022-09-12T14:04:23;98355.56;;;18.13;41.87
65211;BME280;51794;52.758;55.792;2022-09-12T14:07:15;98352.38;;;17.32;44.32
65211;BME280;51794;52.758;55.792;2022-09-12T14:09:44;98353.69;;;17.10;44.99
65211;BME280;51794;52.758;55.792;2022-09-12T14:12:16;98346.41;;;17.89;43.67
65211;BME280;51794;52.758;55.792;2022-09-12T14:14:47;98351.78;;;17.24;45.10
65211;BME280;51794;52.758;55.792;2022-09-12T14:17:21;98348.03;;;17.38;43.88
65211;BME280;51794;52.758;55.792;2022-09-12T14:19:48;98357.31;;;17.49;44.12
65211;BME280;51794;52.758;55.792;2022-09-12T14:22:14;98362.34;;;16.65;44.92
65211;BME280;51794;52.758;55.792;2022-09-12T14:24:46;98366.44;;;17.14;43.82
65211;BME280;51794;52.758;55.792;2022-09-12T14:27:18;98354.25;;;17.32;43.28
65211;BME280;51794;52.758;55.792;2022-09-12T14:29:48;98358.47;;;17.66;42.03
65211;BME280;51794;52.758;55.792;2022-09-12T14:32:23;98360.72;;;16.91;44.21
65211;BME280;51794;52.758;55.792;2022-09-12T14:37:34;98365.47;;;15.68;47.84
65211;BME280;51794;52.758;55.792;2022-09-12T14:40:00;98363.66;;;15.88;47.08
65211;BME280;51794;52.758;55.792;2022-09-12T14:42:30;98361.31;;;16.46;45.95
65211;BME280;51794;52.758;55.792;2022-09-12T14:45:03;98363.78;;;16.75;45.24
65211;BME280;51794;52.758;55.792;2022-09-12T14:47:39;98367.59;;;17.52;43.98